METAR Data
IDs: Format: Raw Decoded Include TAF

Data at: 2127 UTC 02 Aug 2021

KTOB 022115Z AUTO 34007KT 10SM SCT080 26/10 A3015 RMK AO2